createdAt,value
2023-04-01T00:00:39.353Z,3.85
2023-04-01T00:03:09.352Z,3.80
2023-04-01T00:05:38.940Z,3.55
2023-04-01T00:08:08.806Z,4.30
2023-04-01T00:10:44.145Z,4.28
2023-04-01T00:13:14.139Z,4.00
2023-04-01T00:15:45.017Z,4.28
2023-04-01T00:18:15.467Z,4.55
2023-04-01T00:20:48.377Z,5.18
2023-04-01T00:23:18.153Z,5.80
2023-04-01T00:25:52.801Z,5.60
2023-04-01T00:28:23.859Z,5.05
2023-04-01T00:30:53.623Z,5.45
2023-04-01T00:33:23.175Z,6.00
2023-04-01T00:35:52.800Z,5.55
2023-04-01T00:38:22.983Z,4.75
2023-04-01T00:41:01.387Z,5.85
2023-04-01T00:43:31.525Z,5.97
2023-04-01T00:46:01.426Z,5.95
2023-04-01T00:48:34.470Z,6.20
2023-04-01T00:51:08.514Z,5.72
2023-04-01T00:53:43.036Z,5.57
2023-04-01T00:56:18.827Z,5.72
2023-04-01T00:58:55.098Z,6.28
2023-04-01T01:01:27.577Z,5.82
2023-04-01T01:03:57.327Z,6.65
2023-04-01T01:06:42.945Z,6.15
2023-04-01T01:09:34.466Z,6.82
2023-04-01T01:12:14.076Z,6.38
2023-04-01T01:14:55.544Z,6.20
2023-04-01T01:17:36.341Z,6.38
2023-04-01T01:20:36.542Z,6.35
2023-04-01T01:23:43.752Z,6.90
2023-04-01T01:26:38.376Z,6.25
2023-04-01T01:29:21.664Z,6.88
2023-04-01T01:32:02.600Z,6.25
2023-04-01T01:34:38.289Z,7.18
2023-04-01T01:37:15.782Z,6.57
2023-04-01T01:39:48.580Z,6.57
2023-04-01T01:42:22.535Z,6.20
2023-04-01T01:44:53.811Z,6.30
2023-04-01T01:47:26.145Z,6.85
2023-04-01T01:49:58.051Z,6.63
2023-04-01T01:52:32.031Z,6.90
2023-04-01T01:55:02.160Z,6.75
2023-04-01T01:57:34.446Z,6.65
2023-04-01T02:00:14.039Z,6.30
2023-04-01T02:02:44.400Z,6.38
2023-04-01T02:05:19.363Z,6.40
2023-04-01T02:07:56.647Z,6.38
2023-04-01T02:10:29.596Z,6.45
2023-04-01T02:13:05.054Z,5.97
2023-04-01T02:15:41.435Z,6.57
2023-04-01T02:18:11.905Z,5.78
2023-04-01T02:20:42.887Z,6.40
2023-04-01T02:23:15.666Z,6.15
2023-04-01T02:25:46.906Z,5.55
2023-04-01T02:28:20.612Z,5.93
2023-04-01T02:30:51.999Z,6.07
2023-04-01T02:33:23.212Z,6.03
2023-04-01T02:35:53.116Z,5.60
2023-04-01T02:38:25.712Z,5.28
2023-04-01T02:41:01.608Z,5.72
2023-04-01T02:43:31.381Z,5.15
2023-04-01T02:46:01.096Z,5.00
2023-04-01T02:48:30.894Z,4.75
2023-04-01T02:51:00.737Z,4.75
2023-04-01T02:53:32.995Z,4.90
2023-04-01T02:56:02.544Z,4.45
2023-04-01T02:58:32.104Z,4.10
2023-04-01T03:01:04.104Z,4.07
2023-04-01T03:03:35.853Z,4.50
2023-04-01T03:06:09.426Z,3.75
2023-04-01T03:08:42.087Z,4.15
2023-04-01T03:11:16.259Z,4.20
2023-04-01T03:13:46.178Z,3.92
2023-04-01T03:16:17.195Z,4.13
2023-04-01T03:18:47.077Z,5.80
2023-04-01T03:21:18.525Z,7.72
2023-04-01T03:23:50.922Z,6.60
2023-04-01T03:26:22.645Z,3.75
2023-04-01T03:28:52.568Z,3.92
2023-04-01T03:31:23.624Z,3.78
2023-04-01T03:33:53.510Z,3.83
2023-04-01T03:36:23.177Z,4.35
2023-04-01T03:38:55.551Z,3.97
2023-04-01T03:41:27.465Z,4.18
2023-04-01T03:43:57.684Z,3.60
2023-04-01T03:46:27.293Z,2.90
2023-04-01T03:48:56.869Z,3.45
2023-04-01T03:51:26.958Z,3.55
2023-04-01T03:53:59.214Z,3.28
2023-04-01T03:56:28.800Z,3.55
2023-04-01T03:58:58.356Z,3.25
2023-04-01T04:01:28.795Z,3.85
2023-04-01T04:03:58.333Z,3.17
2023-04-01T04:06:28.694Z,3.70
2023-04-01T04:09:01.021Z,3.53
2023-04-01T04:11:30.929Z,2.83
2023-04-01T04:14:00.582Z,4.07
2023-04-01T04:16:32.066Z,3.00
2023-04-01T04:19:01.697Z,3.85
2023-04-01T04:21:31.273Z,3.70
2023-04-01T04:24:04.101Z,4.05
2023-04-01T04:26:33.740Z,4.22
2023-04-01T04:29:03.633Z,3.95
2023-04-01T04:31:33.255Z,3.55
2023-04-01T04:34:07.506Z,3.60
2023-04-01T04:36:37.306Z,3.22
2023-04-01T04:39:09.449Z,3.50
2023-04-01T04:41:41.642Z,3.70
2023-04-01T04:44:11.369Z,3.22
2023-04-01T04:46:41.009Z,3.65
2023-04-01T04:49:11.242Z,3.30
2023-04-01T04:51:40.922Z,3.58
2023-04-01T04:54:13.454Z,3.65
2023-04-01T04:56:43.136Z,3.65
2023-04-01T04:59:13.732Z,3.60
2023-04-01T05:01:43.379Z,3.75
2023-04-01T05:04:12.967Z,2.78
2023-04-01T05:06:42.510Z,3.78
2023-04-01T05:09:14.637Z,3.70
2023-04-01T05:11:44.223Z,3.00
2023-04-01T05:14:17.236Z,3.80
2023-04-01T05:16:47.212Z,2.85
2023-04-01T05:19:16.970Z,3.40
2023-04-01T05:21:46.793Z,3.55
2023-04-01T05:24:18.911Z,3.75
2023-04-01T05:26:48.532Z,3.97
2023-04-01T05:29:18.120Z,3.47
2023-04-01T05:31:47.624Z,3.45
2023-04-01T05:34:20.284Z,3.60
2023-04-01T05:36:49.855Z,3.30
2023-04-01T05:39:22.040Z,3.38
2023-04-01T05:41:51.611Z,3.60
2023-04-01T05:44:21.892Z,3.33
2023-04-01T05:46:51.413Z,3.22
2023-04-01T05:49:21.212Z,3.65
2023-04-01T05:51:50.845Z,3.72
2023-04-01T05:54:23.367Z,3.72
2023-04-01T05:56:53.134Z,4.90
2023-04-01T05:59:22.686Z,3.63
2023-04-01T06:01:52.467Z,3.70
2023-04-01T06:04:24.556Z,3.67
2023-04-01T06:06:54.683Z,3.90
2023-04-01T06:09:31.451Z,4.05
2023-04-01T06:12:21.941Z,3.60
2023-04-01T06:15:05.106Z,3.72
2023-04-01T06:17:50.841Z,3.67
2023-04-01T06:20:29.424Z,3.40
2023-04-01T06:23:14.980Z,4.35
2023-04-01T06:26:06.786Z,3.80
2023-04-01T06:28:52.204Z,3.72
2023-04-01T06:31:37.233Z,4.18
2023-04-01T06:34:42.792Z,3.65
2023-04-01T06:37:24.304Z,3.30
2023-04-01T06:40:17.731Z,4.20
2023-04-01T06:43:02.402Z,4.20
2023-04-01T06:45:40.918Z,3.58
2023-04-01T06:48:32.537Z,4.43
2023-04-01T06:51:12.756Z,4.72
2023-04-01T06:53:51.469Z,4.20
2023-04-01T06:56:23.177Z,5.25
2023-04-01T06:58:59.811Z,5.00
2023-04-01T07:01:34.927Z,5.80
2023-04-01T07:04:08.994Z,5.20
2023-04-01T07:06:42.169Z,4.97
2023-04-01T07:09:17.045Z,4.65
2023-04-01T07:11:47.046Z,5.30
2023-04-01T07:14:24.664Z,5.20
2023-04-01T07:17:02.647Z,4.82
2023-04-01T07:19:38.007Z,4.72
2023-04-01T07:22:10.423Z,3.60
2023-04-01T07:24:43.319Z,4.38
2023-04-01T07:27:15.019Z,4.70
2023-04-01T07:29:47.152Z,4.50
2023-04-01T07:32:31.330Z,4.45
2023-04-01T07:35:17.159Z,4.47
2023-04-01T07:37:56.713Z,4.57
2023-04-01T07:40:34.519Z,4.90
2023-04-01T07:43:22.423Z,4.28
2023-04-01T07:46:04.181Z,4.80
2023-04-01T07:48:41.905Z,3.75
2023-04-01T07:51:17.414Z,3.97
2023-04-01T07:53:54.070Z,4.20
2023-04-01T07:56:31.392Z,4.63
2023-04-01T07:59:10.872Z,4.47
2023-04-01T08:01:48.014Z,5.00
2023-04-01T08:04:35.038Z,4.68
2023-04-01T08:07:11.984Z,4.88
2023-04-01T08:09:52.121Z,3.72
2023-04-01T08:12:33.286Z,3.97
2023-04-01T08:15:12.274Z,4.22
2023-04-01T08:17:56.483Z,4.00
2023-04-01T08:20:34.945Z,3.92
2023-04-01T08:23:10.637Z,3.50
2023-04-01T08:25:43.385Z,3.53
2023-04-01T08:28:21.320Z,4.78
2023-04-01T08:30:55.251Z,3.45
2023-04-01T08:33:30.222Z,3.90
2023-04-01T08:36:05.557Z,3.85
2023-04-01T08:38:38.725Z,4.75
2023-04-01T08:41:48.843Z,4.13
2023-04-01T08:45:01.502Z,4.30
2023-04-01T08:48:01.837Z,4.63
2023-04-01T08:51:12.219Z,3.92
2023-04-01T08:54:01.269Z,4.70
2023-04-01T08:56:37.493Z,3.28
2023-04-01T08:59:46.819Z,4.07
2023-04-01T09:02:45.591Z,4.65
2023-04-01T09:05:35.740Z,3.60
2023-04-01T09:08:21.164Z,4.07
2023-04-01T09:11:15.259Z,4.38
2023-04-01T09:14:10.157Z,4.00
2023-04-01T09:17:19.331Z,3.00
2023-04-01T09:20:06.051Z,3.78
2023-04-01T09:22:48.721Z,4.32
2023-04-01T09:25:48.331Z,3.67
2023-04-01T09:28:23.504Z,3.97
2023-04-01T09:31:14.387Z,4.17
2023-04-01T09:34:09.302Z,3.88
2023-04-01T09:36:49.569Z,3.95
2023-04-01T09:39:40.072Z,4.03
2023-04-01T09:42:45.554Z,4.10
2023-04-01T09:45:31.874Z,3.67
2023-04-01T09:50:47.444Z,3.88
2023-04-01T09:53:38.098Z,4.32
2023-04-01T09:56:43.604Z,3.72
2023-04-01T09:59:47.755Z,4.00
2023-04-01T10:02:59.140Z,3.90
2023-04-01T10:06:13.130Z,4.25
2023-04-01T10:09:21.394Z,3.92
2023-04-01T10:12:15.618Z,3.63
2023-04-01T10:15:21.165Z,3.75
2023-04-01T10:18:37.111Z,3.50
2023-04-01T10:21:26.615Z,3.20
2023-04-01T10:24:22.198Z,2.40
2023-04-01T10:27:19.934Z,2.40
2023-04-01T10:30:33.136Z,2.40
2023-04-01T10:33:27.685Z,2.50
2023-04-01T10:36:51.031Z,2.47
2023-04-01T10:39:37.820Z,2.58
2023-04-01T10:42:49.577Z,2.58
2023-04-01T10:45:50.122Z,2.78
2023-04-01T10:48:54.531Z,2.85
2023-04-01T10:51:52.870Z,2.95
2023-04-01T10:54:33.334Z,3.17
2023-04-01T10:57:06.359Z,2.72
2023-04-01T10:59:55.359Z,2.58
2023-04-01T11:03:04.371Z,2.67
2023-04-01T11:06:02.407Z,2.67
2023-04-01T11:09:14.982Z,2.42
2023-04-01T11:12:28.071Z,2.70
2023-04-01T11:15:27.747Z,2.80
2023-04-01T11:18:17.274Z,3.10
2023-04-01T11:21:16.826Z,2.95
2023-04-01T11:24:04.897Z,3.13
2023-04-01T11:26:51.474Z,3.17
2023-04-01T11:29:59.141Z,3.30
2023-04-01T11:32:43.921Z,2.63
2023-04-01T11:35:39.730Z,3.00
2023-04-01T11:38:23.487Z,2.70
2023-04-01T11:41:03.787Z,2.60
2023-04-01T11:43:38.710Z,2.60
2023-04-01T11:46:14.533Z,2.28
2023-04-01T11:49:06.704Z,2.40
2023-04-01T11:51:59.858Z,2.42
2023-04-01T11:54:48.012Z,2.40
2023-04-01T11:57:47.391Z,2.60
2023-04-01T12:00:39.435Z,2.50
2023-04-01T12:03:32.314Z,2.58
2023-04-01T12:06:08.381Z,2.95
2023-04-01T12:08:48.124Z,2.78
2023-04-01T12:11:25.232Z,2.40
2023-04-01T12:14:06.234Z,2.80
2023-04-01T12:17:01.546Z,2.40
2023-04-01T12:19:41.946Z,2.40
2023-04-01T12:22:36.524Z,2.10
2023-04-01T12:25:22.530Z,2.10
2023-04-01T12:28:04.075Z,2.00
2023-04-01T12:30:59.595Z,2.10
2023-04-01T12:33:46.531Z,2.00
2023-04-01T12:36:38.474Z,2.40
2023-04-01T12:39:26.694Z,2.20
2023-04-01T12:42:03.739Z,2.10
2023-04-01T12:44:50.851Z,2.20
2023-04-01T12:47:57.519Z,2.17
2023-04-01T12:50:40.565Z,1.92
2023-04-01T12:53:26.310Z,2.05
2023-04-01T12:55:56.396Z,2.38
2023-04-01T12:58:58.410Z,2.22
2023-04-01T13:01:35.701Z,2.10
2023-04-01T13:04:48.685Z,2.38
2023-04-01T13:07:47.338Z,2.58
2023-04-01T13:10:32.005Z,2.20
2023-04-01T13:13:18.519Z,2.30
2023-04-01T13:18:30.914Z,2.38
2023-04-01T13:21:13.232Z,2.30
2023-04-01T13:23:59.930Z,2.30
2023-04-01T13:26:38.267Z,2.30
2023-04-01T13:29:15.071Z,2.10
2023-04-01T13:32:09.835Z,2.25
2023-04-01T13:34:55.158Z,2.30
2023-04-01T13:37:52.055Z,2.65
2023-04-01T13:40:46.794Z,2.40
2023-04-01T13:43:26.137Z,2.40
2023-04-01T13:46:20.319Z,2.50
2023-04-01T13:49:06.738Z,2.53
2023-04-01T13:54:50.474Z,2.90
2023-04-01T13:57:39.892Z,2.70
2023-04-01T14:00:28.911Z,2.45
2023-04-01T14:03:33.996Z,2.50
2023-04-01T14:06:31.325Z,3.20
2023-04-01T14:09:30.449Z,3.83
2023-04-01T14:12:12.262Z,3.38
2023-04-01T14:14:56.721Z,2.80
2023-04-01T14:17:45.709Z,2.90
2023-04-01T14:20:44.626Z,2.50
2023-04-01T14:23:39.964Z,2.67
2023-04-01T14:26:26.507Z,2.83
2023-04-01T14:31:51.407Z,2.90
2023-04-01T14:34:36.577Z,2.72
2023-04-01T14:37:16.957Z,2.60
2023-04-01T14:40:09.683Z,2.67
2023-04-01T14:42:58.532Z,2.80
2023-04-01T14:45:50.008Z,3.30
2023-04-01T14:48:33.049Z,3.30
2023-04-01T14:51:13.286Z,3.25
2023-04-01T14:53:47.536Z,3.38
2023-04-01T14:56:37.743Z,3.65
2023-04-01T14:59:12.974Z,3.60
2023-04-01T15:01:51.608Z,3.83
2023-04-01T15:04:47.459Z,3.75
2023-04-01T15:07:30.944Z,4.60
2023-04-01T15:10:20.820Z,4.18
2023-04-01T15:13:00.478Z,4.38
2023-04-01T15:15:46.330Z,5.10
2023-04-01T15:18:25.945Z,4.70
2023-04-01T15:21:28.766Z,3.75
2023-04-01T15:24:03.804Z,3.55
2023-04-01T15:26:54.393Z,4.20
2023-04-01T15:29:42.601Z,4.60
2023-04-01T15:32:20.867Z,5.40
2023-04-01T15:35:03.846Z,3.85
2023-04-01T15:37:42.191Z,5.15
2023-04-01T15:40:26.598Z,4.78
2023-04-01T15:43:08.984Z,4.88
2023-04-01T15:45:49.579Z,5.85
2023-04-01T15:48:35.655Z,6.60
2023-04-01T15:51:43.173Z,6.20
2023-04-01T15:57:19.171Z,5.78
2023-04-01T16:00:11.947Z,7.60
2023-04-01T16:02:50.994Z,6.50
2023-04-01T16:05:34.251Z,6.70
2023-04-01T16:08:36.506Z,6.32
2023-04-01T16:11:22.676Z,6.53
2023-04-01T16:14:02.325Z,7.03
2023-04-01T16:16:50.180Z,7.43
2023-04-01T16:19:41.146Z,7.28
2023-04-01T16:22:17.459Z,8.23
2023-04-01T16:24:55.390Z,9.43
2023-04-01T16:27:31.596Z,9.02
2023-04-01T16:30:07.063Z,9.02
2023-04-01T16:32:45.461Z,9.13
2023-04-01T16:35:28.265Z,8.88
2023-04-01T16:38:07.787Z,8.55
2023-04-01T16:40:47.184Z,8.80
2023-04-01T16:43:25.444Z,8.57
2023-04-01T16:46:16.266Z,8.90
2023-04-01T16:49:01.702Z,9.38
2023-04-01T16:51:40.643Z,9.20
2023-04-01T16:54:17.174Z,9.90
2023-04-01T16:56:54.253Z,10.75
2023-04-01T16:59:28.344Z,10.90
2023-04-01T17:02:05.633Z,10.60
2023-04-01T17:04:42.309Z,11.85
2023-04-01T17:07:24.377Z,12.05
2023-04-01T17:10:05.666Z,11.52
2023-04-01T17:12:52.757Z,12.52
2023-04-01T17:15:28.818Z,13.07
2023-04-01T17:20:47.214Z,20.20
2023-04-01T17:23:24.058Z,17.92
2023-04-01T17:26:14.729Z,14.25
2023-04-01T17:28:54.387Z,12.93
2023-04-01T17:31:46.313Z,14.48
2023-04-01T17:34:34.941Z,14.18
2023-04-01T17:37:20.862Z,13.13
2023-04-01T17:40:01.329Z,14.90
2023-04-01T17:42:43.667Z,11.02
2023-04-01T17:45:25.986Z,11.43
2023-04-01T17:48:07.267Z,13.85
2023-04-01T17:50:54.729Z,12.10
2023-04-01T17:53:39.051Z,15.48
2023-04-01T17:56:25.956Z,11.13
2023-04-01T17:59:03.258Z,12.13
2023-04-01T18:01:58.860Z,10.73
2023-04-01T18:04:41.892Z,11.52
2023-04-01T18:07:32.184Z,13.15
2023-04-01T18:10:17.633Z,13.88
2023-04-01T18:13:09.502Z,14.88
2023-04-01T18:15:46.291Z,13.85
2023-04-01T18:18:39.321Z,14.35
2023-04-01T18:21:16.326Z,10.27
2023-04-01T18:24:01.732Z,10.60
2023-04-01T18:26:35.896Z,9.85
2023-04-01T18:29:15.090Z,11.20
2023-04-01T18:31:49.530Z,11.35
2023-04-01T18:34:41.737Z,13.98
2023-04-01T18:37:25.495Z,11.65
2023-04-01T18:39:59.784Z,11.88
2023-04-01T18:42:41.488Z,16.85
2023-04-01T18:45:22.760Z,13.63
2023-04-01T18:48:03.792Z,14.48
2023-04-01T18:50:42.474Z,13.20
2023-04-01T18:53:23.705Z,15.00
2023-04-01T18:55:57.805Z,10.77
2023-04-01T18:58:33.074Z,14.70
2023-04-01T19:01:24.518Z,14.57
2023-04-01T19:04:06.840Z,14.35
2023-04-01T19:06:48.938Z,14.15
2023-04-01T19:09:26.540Z,14.02
2023-04-01T19:12:17.779Z,13.57
2023-04-01T19:14:57.633Z,14.18
2023-04-01T19:17:45.946Z,13.63
2023-04-01T19:20:25.150Z,13.75
2023-04-01T19:23:21.858Z,14.18
2023-04-01T19:25:54.856Z,15.20
2023-04-01T19:28:35.898Z,14.80
2023-04-01T19:31:20.899Z,12.98
2023-04-01T19:34:04.030Z,14.50
2023-04-01T19:36:40.203Z,14.02
2023-04-01T19:44:34.240Z,16.48
2023-04-01T19:47:11.769Z,15.32
2023-04-01T19:49:52.344Z,15.93
2023-04-01T19:52:26.814Z,14.07
2023-04-01T19:55:03.213Z,16.45
2023-04-01T19:57:42.463Z,14.82
2023-04-01T20:00:26.060Z,15.80
2023-04-01T20:03:16.180Z,14.38
2023-04-01T20:05:54.017Z,18.27
2023-04-01T20:08:37.068Z,19.95
2023-04-01T20:11:25.793Z,19.38
2023-04-01T20:14:05.655Z,18.42
2023-04-01T20:16:58.483Z,15.65
2023-04-01T20:19:37.646Z,14.00
2023-04-01T20:22:22.858Z,13.43
2023-04-01T20:24:53.047Z,15.63
2023-04-01T20:27:29.989Z,14.05
2023-04-01T20:30:16.861Z,15.95
2023-04-01T20:33:05.806Z,14.52
2023-04-01T20:35:46.486Z,16.42
2023-04-01T20:38:39.049Z,13.50
2023-04-01T20:41:17.100Z,16.10
2023-04-01T20:44:01.848Z,16.08
2023-04-01T20:46:39.168Z,14.05
2023-04-01T20:49:44.603Z,14.60
2023-04-01T20:52:37.201Z,12.00
2023-04-01T20:55:26.341Z,16.25
2023-04-01T20:58:10.502Z,15.35
2023-04-01T21:00:56.780Z,15.48
2023-04-01T21:03:45.599Z,15.63
2023-04-01T21:06:27.936Z,12.90
2023-04-01T21:09:22.085Z,13.60
2023-04-01T21:12:01.558Z,17.23
2023-04-01T21:14:53.889Z,16.38
2023-04-01T21:17:37.631Z,12.18
2023-04-01T21:20:20.807Z,15.52
2023-04-01T21:23:04.017Z,17.15
2023-04-01T21:25:58.157Z,10.35
2023-04-01T21:28:48.882Z,14.27
2023-04-01T21:31:54.115Z,14.85
2023-04-01T21:34:45.874Z,11.55
2023-04-01T21:37:39.696Z,13.10
2023-04-01T21:40:38.338Z,13.00
2023-04-01T21:43:25.122Z,11.23
2023-04-01T21:46:30.034Z,16.13
2023-04-01T21:49:18.988Z,16.05
2023-04-01T21:52:18.727Z,12.80
2023-04-01T21:55:27.290Z,17.85
2023-04-01T21:58:31.509Z,14.95
2023-04-01T22:01:13.880Z,12.93
2023-04-01T22:04:04.933Z,17.58
2023-04-01T22:06:41.429Z,15.73
2023-04-01T22:09:22.009Z,16.33
2023-04-01T22:11:58.535Z,11.93
2023-04-01T22:14:35.352Z,15.50
2023-04-01T22:17:14.769Z,14.73
2023-04-01T22:19:51.932Z,14.43
2023-04-01T22:22:26.024Z,14.18
2023-04-01T22:25:08.140Z,15.63
2023-04-01T22:27:46.198Z,16.70
2023-04-01T22:30:23.080Z,14.13
2023-04-01T22:32:56.829Z,11.15
2023-04-01T22:35:39.509Z,13.35
2023-04-01T22:38:24.886Z,14.25
2023-04-01T22:41:04.600Z,15.23
2023-04-01T22:43:41.554Z,16.02
2023-04-01T22:46:30.457Z,9.43
2023-04-01T22:49:10.654Z,15.57
2023-04-01T22:51:46.956Z,15.38
2023-04-01T22:54:25.623Z,14.73
2023-04-01T22:57:01.203Z,11.85
2023-04-01T22:59:38.768Z,14.32
2023-04-01T23:02:15.056Z,14.45
2023-04-01T23:04:47.643Z,11.73
2023-04-01T23:07:38.064Z,11.65
2023-04-01T23:10:15.869Z,9.75
2023-04-01T23:12:49.504Z,9.60
2023-04-01T23:15:20.266Z,10.05
2023-04-01T23:17:57.978Z,12.10
2023-04-01T23:20:36.409Z,9.43
2023-04-01T23:23:30.844Z,10.48
2023-04-01T23:26:09.473Z,12.48
2023-04-01T23:28:51.639Z,12.50
2023-04-01T23:31:38.306Z,11.45
2023-04-01T23:36:56.911Z,9.75
2023-04-01T23:39:30.432Z,10.95
2023-04-01T23:42:05.515Z,13.20
2023-04-01T23:44:39.293Z,13.77
2023-04-01T23:47:11.535Z,10.60
2023-04-01T23:49:44.118Z,10.80
2023-04-01T23:52:17.843Z,10.55
2023-04-01T23:54:53.305Z,11.10
2023-04-01T23:57:26.608Z,10.00
